EZY14FK LIRF-EGNT
Flight info
| Callsign | EZY14FK |
|---|---|
| Flight time | 2h 32m |
| Altitude | 38000 |
| Route | NEMBO DCT GOVGO DCT GEN DCT AOSTA DCT ORSUD DCT MOLUS DCT IBODI DCT GOTED DCT TRO DCT CLM DCT KOPOR DCT VESAN DCT RATUK DCT SOVAT L613 MAMUL UY250 RIMTO |
| Aircraft | A320/M-SDE3FGHIRWY/LB1 |
Departure
| Time | 2026-05-04 17:00 |
|---|---|
| Airport | Rome–Fiumicino Leonardo da Vinci International Airport (LIRF) |
Arrival
| Time | 2026-05-04 19:33 |
|---|---|
| Airport | Newcastle International Airport (EGNT) |
| Time | Latitude | Longitude | Altitude | Speed | Heading |
|---|---|---|---|---|---|
| 2026-05-04 16:43 | 41.79272 | 12.24744 | 18 ft | 0 kts | 169° |
| 2026-05-04 16:48 | 41.79274 | 12.24744 | 18 ft | 2 kts | 169° |
| 2026-05-04 16:49 | 41.79300 | 12.24736 | 20 ft | 2 kts | 158° |
| 2026-05-04 16:49 | 41.79335 | 12.24728 | 22 ft | 1 kts | 256° |
| 2026-05-04 16:50 | 41.79332 | 12.24714 | 20 ft | 0 kts | 252° |
| 2026-05-04 16:51 | 41.79320 | 12.24644 | 21 ft | 13 kts | 258° |
| 2026-05-04 16:52 | 41.79336 | 12.24362 | 19 ft | 17 kts | 304° |
| 2026-05-04 16:52 | 41.79393 | 12.24234 | 18 ft | 14 kts | 280° |
| 2026-05-04 16:53 | 41.79383 | 12.24017 | 18 ft | 13 kts | 322° |
| 2026-05-04 16:53 | 41.79711 | 12.23918 | 15 ft | 11 kts | 58° |
| 2026-05-04 16:54 | 41.79740 | 12.24022 | 17 ft | 15 kts | 71° |
| 2026-05-04 16:55 | 41.79918 | 12.24498 | 15 ft | 13 kts | 70° |
| 2026-05-04 16:55 | 41.79994 | 12.24769 | 17 ft | 13 kts | 55° |
| 2026-05-04 16:56 | 41.80151 | 12.24776 | 15 ft | 13 kts | 12° |
| 2026-05-04 16:56 | 41.80242 | 12.25201 | 19 ft | 21 kts | 70° |
| 2026-05-04 16:57 | 41.80293 | 12.25390 | 18 ft | 23 kts | 69° |
| 2026-05-04 16:57 | 41.80414 | 12.25826 | 14 ft | 27 kts | 70° |
| 2026-05-04 16:58 | 41.80618 | 12.26564 | 15 ft | 30 kts | 70° |
| 2026-05-04 16:58 | 41.80683 | 12.26811 | 13 ft | 26 kts | 67° |
| 2026-05-04 16:59 | 41.80781 | 12.27046 | 10 ft | 9 kts | 13° |
| 2026-05-04 17:00 | 41.80856 | 12.26560 | 15 ft | 77 kts | 249° |
| 2026-05-04 17:00 | 41.79847 | 12.22780 | 879 ft | 168 kts | 250° |
| 2026-05-04 17:01 | 41.79206 | 12.19555 | 1773 ft | 202 kts | 269° |
| 2026-05-04 17:01 | 41.79184 | 12.15385 | 2698 ft | 246 kts | 269° |
| 2026-05-04 17:02 | 41.79086 | 12.10603 | 4154 ft | 267 kts | 268° |
| 2026-05-04 17:02 | 41.79005 | 12.05497 | 5837 ft | 279 kts | 269° |
| 2026-05-04 17:03 | 41.79003 | 12.02886 | 6724 ft | 282 kts | 269° |
| 2026-05-04 17:03 | 41.79007 | 12.00252 | 7591 ft | 284 kts | 269° |
| 2026-05-04 17:03 | 41.79005 | 11.94909 | 9393 ft | 289 kts | 270° |
| 2026-05-04 17:04 | 41.78997 | 11.89445 | 10660 ft | 311 kts | 270° |
| 2026-05-04 17:04 | 41.78981 | 11.83332 | 11606 ft | 337 kts | 270° |
| 2026-05-04 17:05 | 41.78951 | 11.76982 | 13105 ft | 344 kts | 269° |
| 2026-05-04 17:05 | 41.78916 | 11.70528 | 14507 ft | 349 kts | 269° |
| 2026-05-04 17:06 | 41.78882 | 11.63973 | 15834 ft | 354 kts | 269° |
| 2026-05-04 17:06 | 41.78869 | 11.60705 | 16474 ft | 357 kts | 270° |
| 2026-05-04 17:07 | 41.80006 | 11.54215 | 17724 ft | 365 kts | 296° |
| 2026-05-04 17:07 | 41.80862 | 11.52272 | 18139 ft | 368 kts | 304° |
| 2026-05-04 17:07 | 41.83085 | 11.48742 | 18883 ft | 373 kts | 310° |
| 2026-05-04 17:07 | 41.84847 | 11.46184 | 19430 ft | 375 kts | 317° |
| 2026-05-04 17:08 | 41.86973 | 11.44119 | 19975 ft | 379 kts | 325° |
| 2026-05-04 17:08 | 41.91368 | 11.40247 | 21088 ft | 382 kts | 326° |
| 2026-05-04 17:08 | 41.93601 | 11.38293 | 21624 ft | 384 kts | 326° |
| 2026-05-04 17:09 | 41.95845 | 11.36327 | 22149 ft | 386 kts | 326° |
| 2026-05-04 17:09 | 41.98103 | 11.34344 | 22681 ft | 388 kts | 326° |
| 2026-05-04 17:09 | 42.00368 | 11.32346 | 23200 ft | 390 kts | 325° |
| 2026-05-04 17:10 | 42.04927 | 11.28315 | 24119 ft | 394 kts | 325° |
| 2026-05-04 17:10 | 42.11810 | 11.22224 | 25381 ft | 398 kts | 325° |
| 2026-05-04 17:11 | 42.14130 | 11.20167 | 25786 ft | 400 kts | 325° |
| 2026-05-04 17:11 | 42.16460 | 11.18103 | 26194 ft | 401 kts | 324° |
| 2026-05-04 17:11 | 42.21141 | 11.13949 | 26986 ft | 404 kts | 324° |
| 2026-05-04 17:12 | 42.23493 | 11.11856 | 27378 ft | 406 kts | 324° |
| 2026-05-04 17:12 | 42.28222 | 11.07636 | 28143 ft | 409 kts | 324° |
| 2026-05-04 17:13 | 42.35358 | 11.01272 | 29267 ft | 414 kts | 324° |
| 2026-05-04 17:14 | 42.42598 | 10.94787 | 30287 ft | 419 kts | 323° |
| 2026-05-04 17:14 | 42.45033 | 10.92604 | 30560 ft | 420 kts | 323° |
| 2026-05-04 17:14 | 42.49913 | 10.88223 | 31138 ft | 422 kts | 323° |
| 2026-05-04 17:15 | 42.52333 | 10.86050 | 31416 ft | 423 kts | 323° |
| 2026-05-04 17:15 | 42.57221 | 10.81658 | 32201 ft | 419 kts | 322° |
| 2026-05-04 17:16 | 42.62057 | 10.77300 | 33018 ft | 415 kts | 322° |
| 2026-05-04 17:16 | 42.69212 | 10.70815 | 34199 ft | 409 kts | 321° |
| 2026-05-04 17:17 | 42.71547 | 10.68696 | 34524 ft | 408 kts | 321° |
| 2026-05-04 17:17 | 42.78608 | 10.62274 | 35403 ft | 406 kts | 321° |
| 2026-05-04 17:18 | 42.80953 | 10.60137 | 35661 ft | 405 kts | 321° |
| 2026-05-04 17:18 | 42.85638 | 10.55873 | 36177 ft | 404 kts | 322° |
| 2026-05-04 17:19 | 42.90281 | 10.51642 | 36656 ft | 404 kts | 321° |
| 2026-05-04 17:19 | 42.94938 | 10.47376 | 37124 ft | 403 kts | 322° |
| 2026-05-04 17:20 | 42.99579 | 10.43117 | 37579 ft | 402 kts | 322° |
| 2026-05-04 17:20 | 43.04215 | 10.38868 | 38005 ft | 401 kts | 321° |
| 2026-05-04 17:20 | 43.06528 | 10.36739 | 38087 ft | 401 kts | 321° |
| 2026-05-04 17:21 | 43.15740 | 10.28247 | 38086 ft | 400 kts | 321° |
| 2026-05-04 17:22 | 43.20365 | 10.23982 | 38087 ft | 401 kts | 321° |
| 2026-05-04 17:23 | 43.29580 | 10.15445 | 38086 ft | 401 kts | 321° |
| 2026-05-04 17:24 | 43.36519 | 10.08990 | 38091 ft | 402 kts | 321° |
| 2026-05-04 17:25 | 43.45780 | 10.00368 | 38090 ft | 402 kts | 321° |
| 2026-05-04 17:26 | 43.55003 | 9.91739 | 38087 ft | 402 kts | 320° |
| 2026-05-04 17:27 | 43.66573 | 9.80851 | 38076 ft | 403 kts | 320° |
| 2026-05-04 17:28 | 43.75815 | 9.72139 | 38076 ft | 404 kts | 320° |
| 2026-05-04 17:29 | 43.89723 | 9.58950 | 38075 ft | 405 kts | 320° |
| 2026-05-04 17:31 | 44.01357 | 9.47850 | 38084 ft | 407 kts | 320° |
| 2026-05-04 17:32 | 44.12986 | 9.36697 | 38090 ft | 408 kts | 319° |
| 2026-05-04 17:33 | 44.22332 | 9.27715 | 38097 ft | 408 kts | 319° |
| 2026-05-04 17:34 | 44.31644 | 9.18711 | 38110 ft | 409 kts | 319° |
| 2026-05-04 17:35 | 44.43273 | 9.07237 | 38102 ft | 406 kts | 313° |
| 2026-05-04 17:36 | 44.47515 | 9.02030 | 38104 ft | 407 kts | 313° |
| 2026-05-04 17:36 | 44.51742 | 8.96831 | 38103 ft | 408 kts | 313° |
| 2026-05-04 17:37 | 44.56001 | 8.91583 | 38103 ft | 408 kts | 313° |
| 2026-05-04 17:37 | 44.60271 | 8.86317 | 38103 ft | 409 kts | 313° |
| 2026-05-04 17:38 | 44.64543 | 8.81033 | 38101 ft | 410 kts | 313° |
| 2026-05-04 17:38 | 44.68826 | 8.75730 | 38091 ft | 412 kts | 313° |
| 2026-05-04 17:39 | 44.75267 | 8.67749 | 38060 ft | 415 kts | 313° |
| 2026-05-04 17:39 | 44.79603 | 8.62352 | 38066 ft | 417 kts | 313° |
| 2026-05-04 17:40 | 44.83953 | 8.56922 | 38074 ft | 419 kts | 313° |
| 2026-05-04 17:40 | 44.88290 | 8.51503 | 38080 ft | 420 kts | 313° |
| 2026-05-04 17:41 | 44.92667 | 8.46033 | 38083 ft | 421 kts | 313° |
| 2026-05-04 17:41 | 44.97044 | 8.40542 | 38089 ft | 421 kts | 313° |
| 2026-05-04 17:42 | 45.01417 | 8.35022 | 38094 ft | 422 kts | 313° |
| 2026-05-04 17:42 | 45.05769 | 8.29527 | 38095 ft | 422 kts | 313° |
| 2026-05-04 17:43 | 45.10148 | 8.24002 | 38095 ft | 422 kts | 313° |
| 2026-05-04 17:43 | 45.14528 | 8.18466 | 38088 ft | 422 kts | 313° |
| 2026-05-04 17:44 | 45.18907 | 8.12911 | 38092 ft | 422 kts | 313° |
| 2026-05-04 17:44 | 45.23283 | 8.07341 | 38103 ft | 423 kts | 313° |
| 2026-05-04 17:45 | 45.27636 | 8.01801 | 38107 ft | 424 kts | 313° |
| 2026-05-04 17:45 | 45.32022 | 7.96200 | 38111 ft | 424 kts | 313° |
| 2026-05-04 17:46 | 45.36404 | 7.90592 | 38112 ft | 424 kts | 313° |
| 2026-05-04 17:46 | 45.40781 | 7.84977 | 38116 ft | 424 kts | 314° |
| 2026-05-04 17:47 | 45.45395 | 7.79744 | 38119 ft | 428 kts | 317° |
| 2026-05-04 17:47 | 45.50165 | 7.74655 | 38127 ft | 429 kts | 318° |
| 2026-05-04 17:48 | 45.54952 | 7.69570 | 38138 ft | 429 kts | 318° |
| 2026-05-04 17:48 | 45.59715 | 7.64432 | 38142 ft | 429 kts | 317° |
| 2026-05-04 17:49 | 45.64428 | 7.59309 | 38141 ft | 429 kts | 317° |
| 2026-05-04 17:49 | 45.69182 | 7.54139 | 38146 ft | 429 kts | 317° |
| 2026-05-04 17:50 | 45.73932 | 7.48959 | 38144 ft | 430 kts | 317° |
| 2026-05-04 17:50 | 45.78692 | 7.43757 | 38152 ft | 430 kts | 317° |
| 2026-05-04 17:51 | 45.83449 | 7.38550 | 38155 ft | 431 kts | 317° |
| 2026-05-04 17:51 | 45.88180 | 7.33368 | 38140 ft | 431 kts | 317° |
| 2026-05-04 17:52 | 45.92943 | 7.28135 | 38137 ft | 431 kts | 317° |
| 2026-05-04 17:52 | 45.97704 | 7.22893 | 38122 ft | 431 kts | 317° |
| 2026-05-04 17:53 | 46.02465 | 7.17641 | 38085 ft | 431 kts | 317° |
| 2026-05-04 17:53 | 46.07195 | 7.12403 | 38089 ft | 433 kts | 317° |
| 2026-05-04 17:54 | 46.11954 | 7.07125 | 38072 ft | 431 kts | 317° |
| 2026-05-04 17:54 | 46.16710 | 7.01846 | 38080 ft | 432 kts | 317° |
| 2026-05-04 17:55 | 46.21465 | 6.96542 | 38067 ft | 432 kts | 317° |
| 2026-05-04 17:55 | 46.26214 | 6.91238 | 38059 ft | 432 kts | 317° |
| 2026-05-04 17:56 | 46.30934 | 6.85950 | 38057 ft | 432 kts | 317° |
| 2026-05-04 17:56 | 46.35687 | 6.80625 | 38059 ft | 432 kts | 317° |
| 2026-05-04 17:57 | 46.40443 | 6.75290 | 38060 ft | 432 kts | 317° |
| 2026-05-04 17:57 | 46.45192 | 6.69941 | 38061 ft | 433 kts | 317° |
| 2026-05-04 17:58 | 46.49912 | 6.64608 | 38062 ft | 433 kts | 317° |
| 2026-05-04 17:58 | 46.54670 | 6.59218 | 38069 ft | 434 kts | 317° |
| 2026-05-04 17:59 | 46.59435 | 6.53820 | 38072 ft | 435 kts | 317° |
| 2026-05-04 18:00 | 46.66592 | 6.45696 | 38071 ft | 435 kts | 316° |
| 2026-05-04 18:00 | 46.71332 | 6.40290 | 38068 ft | 436 kts | 316° |
| 2026-05-04 18:01 | 46.76105 | 6.34834 | 38054 ft | 436 kts | 316° |
| 2026-05-04 18:01 | 46.80884 | 6.29358 | 38056 ft | 437 kts | 316° |
| 2026-05-04 18:02 | 46.88054 | 6.21106 | 38044 ft | 438 kts | 316° |
| 2026-05-04 18:02 | 46.92807 | 6.15615 | 38043 ft | 438 kts | 316° |
| 2026-05-04 18:03 | 46.97597 | 6.10087 | 38038 ft | 439 kts | 316° |
| 2026-05-04 18:03 | 47.02396 | 6.04542 | 38039 ft | 439 kts | 316° |
| 2026-05-04 18:04 | 47.07187 | 5.98974 | 38042 ft | 440 kts | 316° |
| 2026-05-04 18:05 | 47.14347 | 5.90637 | 38035 ft | 440 kts | 316° |
| 2026-05-04 18:05 | 47.19146 | 5.85041 | 38033 ft | 441 kts | 316° |
| 2026-05-04 18:06 | 47.26337 | 5.76604 | 38028 ft | 441 kts | 316° |
| 2026-05-04 18:06 | 47.31129 | 5.70968 | 38026 ft | 441 kts | 316° |
| 2026-05-04 18:07 | 47.35892 | 5.65370 | 38024 ft | 441 kts | 316° |
| 2026-05-04 18:07 | 47.40690 | 5.59707 | 38029 ft | 441 kts | 316° |
| 2026-05-04 18:08 | 47.45479 | 5.54035 | 38027 ft | 442 kts | 316° |
| 2026-05-04 18:08 | 47.50272 | 5.48360 | 38034 ft | 442 kts | 316° |
| 2026-05-04 18:09 | 47.54413 | 5.41905 | 38029 ft | 432 kts | 301° |
| 2026-05-04 18:09 | 47.57975 | 5.34722 | 38021 ft | 433 kts | 302° |
| 2026-05-04 18:10 | 47.61544 | 5.27539 | 38015 ft | 433 kts | 302° |
| 2026-05-04 18:10 | 47.65118 | 5.20336 | 38004 ft | 434 kts | 302° |
| 2026-05-04 18:11 | 47.68663 | 5.13168 | 38007 ft | 434 kts | 302° |
| 2026-05-04 18:11 | 47.72227 | 5.05933 | 37997 ft | 434 kts | 302° |
| 2026-05-04 18:12 | 47.75793 | 4.98678 | 37994 ft | 435 kts | 302° |
| 2026-05-04 18:12 | 47.79357 | 4.91416 | 37991 ft | 435 kts | 302° |
| 2026-05-04 18:13 | 47.82889 | 4.84179 | 37988 ft | 435 kts | 301° |
| 2026-05-04 18:14 | 47.88232 | 4.73218 | 37981 ft | 436 kts | 301° |
| 2026-05-04 18:14 | 47.91801 | 4.65889 | 37977 ft | 437 kts | 302° |
| 2026-05-04 18:15 | 47.98894 | 4.51233 | 37972 ft | 438 kts | 301° |
| 2026-05-04 18:16 | 48.02446 | 4.43844 | 37965 ft | 438 kts | 301° |
| 2026-05-04 18:16 | 48.05999 | 4.36440 | 37962 ft | 439 kts | 301° |
| 2026-05-04 18:17 | 48.11342 | 4.25315 | 37951 ft | 440 kts | 303° |
| 2026-05-04 18:17 | 48.16018 | 4.19417 | 37946 ft | 450 kts | 324° |
| 2026-05-04 18:18 | 48.18677 | 4.16937 | 37944 ft | 450 kts | 324° |
| 2026-05-04 18:18 | 48.24010 | 4.11988 | 37941 ft | 451 kts | 324° |
| 2026-05-04 18:19 | 48.32018 | 4.04540 | 37945 ft | 452 kts | 324° |
| 2026-05-04 18:19 | 48.37353 | 3.99537 | 37947 ft | 452 kts | 324° |
| 2026-05-04 18:20 | 48.42648 | 3.94555 | 37953 ft | 452 kts | 324° |
| 2026-05-04 18:20 | 48.47984 | 3.89531 | 37957 ft | 452 kts | 324° |
| 2026-05-04 18:21 | 48.53318 | 3.84497 | 37959 ft | 452 kts | 324° |
| 2026-05-04 18:21 | 48.58642 | 3.79448 | 37962 ft | 452 kts | 324° |
| 2026-05-04 18:22 | 48.63963 | 3.74392 | 37963 ft | 452 kts | 324° |
| 2026-05-04 18:22 | 48.69250 | 3.69365 | 37963 ft | 452 kts | 324° |
| 2026-05-04 18:23 | 48.74567 | 3.64296 | 37967 ft | 451 kts | 324° |
| 2026-05-04 18:23 | 48.79874 | 3.59219 | 37966 ft | 451 kts | 324° |
| 2026-05-04 18:24 | 48.85178 | 3.54142 | 37969 ft | 451 kts | 324° |
| 2026-05-04 18:24 | 48.90443 | 3.49083 | 37968 ft | 450 kts | 324° |
| 2026-05-04 18:25 | 48.95732 | 3.43985 | 37970 ft | 450 kts | 324° |
| 2026-05-04 18:25 | 49.01020 | 3.38876 | 37966 ft | 450 kts | 324° |
| 2026-05-04 18:26 | 49.06276 | 3.33781 | 37967 ft | 450 kts | 324° |
| 2026-05-04 18:26 | 49.11568 | 3.28655 | 37965 ft | 451 kts | 324° |
| 2026-05-04 18:27 | 49.16854 | 3.23513 | 37966 ft | 451 kts | 324° |
| 2026-05-04 18:27 | 49.22144 | 3.18351 | 37960 ft | 451 kts | 324° |
| 2026-05-04 18:28 | 49.27428 | 3.13175 | 37966 ft | 451 kts | 324° |
| 2026-05-04 18:28 | 49.32674 | 3.08025 | 37963 ft | 451 kts | 324° |
| 2026-05-04 18:29 | 49.37954 | 3.02830 | 37959 ft | 451 kts | 324° |
| 2026-05-04 18:29 | 49.43230 | 2.97623 | 37962 ft | 451 kts | 324° |
| 2026-05-04 18:30 | 49.51142 | 2.89810 | 37959 ft | 451 kts | 324° |
| 2026-05-04 18:31 | 49.56373 | 2.84606 | 37969 ft | 451 kts | 324° |
| 2026-05-04 18:31 | 49.61640 | 2.79358 | 37966 ft | 450 kts | 324° |
| 2026-05-04 18:32 | 49.66892 | 2.74113 | 37966 ft | 450 kts | 324° |
| 2026-05-04 18:32 | 49.72156 | 2.68856 | 37970 ft | 450 kts | 324° |
| 2026-05-04 18:33 | 49.77372 | 2.63630 | 37969 ft | 450 kts | 324° |
| 2026-05-04 18:33 | 49.82611 | 2.58362 | 37970 ft | 449 kts | 324° |
| 2026-05-04 18:34 | 49.87849 | 2.53075 | 37969 ft | 449 kts | 324° |
| 2026-05-04 18:34 | 49.93079 | 2.47802 | 37968 ft | 448 kts | 324° |
| 2026-05-04 18:35 | 49.98305 | 2.42510 | 37963 ft | 448 kts | 324° |
| 2026-05-04 18:35 | 50.03489 | 2.37238 | 37964 ft | 449 kts | 324° |
| 2026-05-04 18:36 | 50.08713 | 2.31915 | 37965 ft | 449 kts | 324° |
| 2026-05-04 18:36 | 50.13933 | 2.26575 | 37968 ft | 449 kts | 324° |
| 2026-05-04 18:37 | 50.19166 | 2.21225 | 37969 ft | 450 kts | 324° |
| 2026-05-04 18:37 | 50.24363 | 2.15885 | 37973 ft | 450 kts | 324° |
| 2026-05-04 18:38 | 50.29592 | 2.10489 | 37970 ft | 451 kts | 324° |
| 2026-05-04 18:38 | 50.34828 | 2.05084 | 37984 ft | 451 kts | 324° |
| 2026-05-04 18:39 | 50.39789 | 1.99140 | 37992 ft | 449 kts | 317° |
| 2026-05-04 18:39 | 50.44501 | 1.92726 | 38001 ft | 449 kts | 317° |
| 2026-05-04 18:40 | 50.49182 | 1.86330 | 38004 ft | 449 kts | 317° |
| 2026-05-04 18:40 | 50.53888 | 1.79885 | 38007 ft | 449 kts | 317° |
| 2026-05-04 18:41 | 50.58591 | 1.73432 | 38012 ft | 449 kts | 317° |
| 2026-05-04 18:41 | 50.63286 | 1.66962 | 38013 ft | 449 kts | 317° |
| 2026-05-04 18:42 | 50.67986 | 1.60481 | 38015 ft | 449 kts | 317° |
| 2026-05-04 18:42 | 50.72641 | 1.54034 | 38009 ft | 448 kts | 316° |
| 2026-05-04 18:43 | 50.77324 | 1.47525 | 38005 ft | 448 kts | 316° |
| 2026-05-04 18:43 | 50.82000 | 1.41007 | 38010 ft | 448 kts | 316° |
| 2026-05-04 18:44 | 50.86682 | 1.34487 | 38023 ft | 448 kts | 316° |
| 2026-05-04 18:44 | 50.91364 | 1.27955 | 38026 ft | 448 kts | 316° |
| 2026-05-04 18:45 | 50.95995 | 1.21454 | 38035 ft | 448 kts | 316° |
| 2026-05-04 18:45 | 51.00658 | 1.14896 | 38039 ft | 448 kts | 316° |
| 2026-05-04 18:46 | 51.05318 | 1.08326 | 38037 ft | 447 kts | 316° |
| 2026-05-04 18:46 | 51.10328 | 1.02434 | 38036 ft | 449 kts | 323° |
| 2026-05-04 18:47 | 51.15461 | 0.96764 | 38033 ft | 449 kts | 323° |
| 2026-05-04 18:47 | 51.20581 | 0.91084 | 38027 ft | 449 kts | 323° |
| 2026-05-04 18:48 | 51.25666 | 0.85413 | 38019 ft | 449 kts | 323° |
| 2026-05-04 18:48 | 51.30785 | 0.79706 | 38017 ft | 449 kts | 323° |
| 2026-05-04 18:49 | 51.35902 | 0.73998 | 38026 ft | 449 kts | 323° |
| 2026-05-04 18:49 | 51.41019 | 0.68270 | 38029 ft | 449 kts | 323° |
| 2026-05-04 18:50 | 51.46123 | 0.62527 | 38030 ft | 448 kts | 323° |
| 2026-05-04 18:50 | 51.51188 | 0.56800 | 38032 ft | 448 kts | 323° |
| 2026-05-04 18:51 | 51.56276 | 0.51030 | 38035 ft | 448 kts | 323° |
| 2026-05-04 18:51 | 51.61369 | 0.45253 | 38036 ft | 447 kts | 323° |
| 2026-05-04 18:52 | 51.66452 | 0.39477 | 38038 ft | 447 kts | 323° |
| 2026-05-04 18:52 | 51.70671 | 0.34670 | 38038 ft | 447 kts | 323° |
| 2026-05-04 18:53 | 51.76563 | 0.27937 | 38040 ft | 446 kts | 323° |
| 2026-05-04 18:53 | 51.81619 | 0.22137 | 38040 ft | 446 kts | 323° |
| 2026-05-04 18:54 | 51.86678 | 0.16326 | 38043 ft | 446 kts | 323° |
| 2026-05-04 18:54 | 51.90872 | 0.11489 | 38037 ft | 445 kts | 323° |
| 2026-05-04 18:55 | 51.95914 | 0.05659 | 38036 ft | 445 kts | 323° |
| 2026-05-04 18:55 | 52.04444 | -0.03715 | 38036 ft | 447 kts | 330° |
| 2026-05-04 18:56 | 52.09034 | -0.07712 | 38036 ft | 447 kts | 330° |
| 2026-05-04 18:56 | 52.14475 | -0.12478 | 38043 ft | 447 kts | 330° |
| 2026-05-04 18:57 | 52.19948 | -0.17296 | 38046 ft | 447 kts | 330° |
| 2026-05-04 18:57 | 52.25422 | -0.22118 | 38051 ft | 447 kts | 330° |
| 2026-05-04 18:58 | 52.30897 | -0.26958 | 38053 ft | 447 kts | 330° |
| 2026-05-04 18:58 | 52.36365 | -0.31807 | 38058 ft | 447 kts | 330° |
| 2026-05-04 18:59 | 52.41792 | -0.36634 | 38064 ft | 447 kts | 330° |
| 2026-05-04 18:59 | 52.47262 | -0.41470 | 38069 ft | 447 kts | 331° |
| 2026-05-04 19:00 | 52.52823 | -0.46003 | 38074 ft | 446 kts | 333° |
| 2026-05-04 19:00 | 52.58438 | -0.50356 | 38074 ft | 446 kts | 334° |
| 2026-05-04 19:01 | 52.63995 | -0.54705 | 38069 ft | 445 kts | 333° |
| 2026-05-04 19:01 | 52.69574 | -0.59159 | 38072 ft | 445 kts | 333° |
| 2026-05-04 19:02 | 52.75119 | -0.63636 | 38069 ft | 444 kts | 333° |
| 2026-05-04 19:02 | 52.80689 | -0.68131 | 38067 ft | 444 kts | 333° |
| 2026-05-04 19:03 | 52.86199 | -0.72576 | 38062 ft | 443 kts | 333° |
| 2026-05-04 19:03 | 52.91744 | -0.77054 | 38069 ft | 443 kts | 333° |
| 2026-05-04 19:04 | 52.97281 | -0.81547 | 38072 ft | 443 kts | 333° |
| 2026-05-04 19:04 | 53.02815 | -0.86047 | 38075 ft | 443 kts | 333° |
| 2026-05-04 19:05 | 53.08307 | -0.90526 | 38074 ft | 443 kts | 333° |
| 2026-05-04 19:05 | 53.13830 | -0.95049 | 38068 ft | 442 kts | 333° |
| 2026-05-04 19:06 | 53.19350 | -0.99588 | 38067 ft | 442 kts | 333° |
| 2026-05-04 19:06 | 53.24858 | -1.04134 | 38069 ft | 442 kts | 333° |
| 2026-05-04 19:07 | 53.30372 | -1.08689 | 38068 ft | 442 kts | 333° |
| 2026-05-04 19:07 | 53.35843 | -1.13225 | 38064 ft | 442 kts | 333° |
| 2026-05-04 19:08 | 53.41351 | -1.17799 | 38061 ft | 442 kts | 333° |
| 2026-05-04 19:08 | 53.44109 | -1.20092 | 37701 ft | 443 kts | 333° |
| 2026-05-04 19:08 | 53.46862 | -1.22384 | 37188 ft | 441 kts | 334° |
| 2026-05-04 19:09 | 53.49607 | -1.24674 | 36681 ft | 440 kts | 334° |
| 2026-05-04 19:09 | 53.52339 | -1.26960 | 36190 ft | 439 kts | 334° |
| 2026-05-04 19:09 | 53.55071 | -1.29251 | 35707 ft | 437 kts | 334° |
| 2026-05-04 19:09 | 53.57776 | -1.31522 | 35228 ft | 434 kts | 335° |
| 2026-05-04 19:10 | 53.60426 | -1.33748 | 34771 ft | 430 kts | 335° |
| 2026-05-04 19:10 | 53.63032 | -1.35939 | 34320 ft | 425 kts | 335° |
| 2026-05-04 19:10 | 53.65662 | -1.38156 | 33838 ft | 421 kts | 335° |
| 2026-05-04 19:10 | 53.68272 | -1.40361 | 33312 ft | 417 kts | 335° |
| 2026-05-04 19:11 | 53.70859 | -1.42548 | 32801 ft | 414 kts | 335° |
| 2026-05-04 19:11 | 53.73397 | -1.44795 | 32291 ft | 411 kts | 333° |
| 2026-05-04 19:11 | 53.75863 | -1.47192 | 31787 ft | 408 kts | 330° |
| 2026-05-04 19:11 | 53.78280 | -1.49684 | 31270 ft | 406 kts | 329° |
| 2026-05-04 19:12 | 53.80636 | -1.52175 | 30782 ft | 403 kts | 329° |
| 2026-05-04 19:12 | 53.85362 | -1.57161 | 29745 ft | 398 kts | 330° |
| 2026-05-04 19:12 | 53.87713 | -1.59605 | 29178 ft | 395 kts | 330° |
| 2026-05-04 19:13 | 53.90056 | -1.62026 | 28616 ft | 393 kts | 330° |
| 2026-05-04 19:13 | 53.92381 | -1.64418 | 28070 ft | 390 kts | 330° |
| 2026-05-04 19:13 | 53.94694 | -1.66794 | 27536 ft | 387 kts | 330° |
| 2026-05-04 19:13 | 53.96992 | -1.69153 | 27012 ft | 385 kts | 330° |
| 2026-05-04 19:14 | 53.99274 | -1.71503 | 26498 ft | 382 kts | 329° |
| 2026-05-04 19:14 | 54.01546 | -1.73843 | 25985 ft | 380 kts | 329° |
| 2026-05-04 19:14 | 54.03766 | -1.76129 | 25506 ft | 378 kts | 329° |
| 2026-05-04 19:14 | 54.06010 | -1.78440 | 25008 ft | 377 kts | 329° |
| 2026-05-04 19:15 | 54.08255 | -1.80764 | 24530 ft | 377 kts | 329° |
| 2026-05-04 19:15 | 54.10492 | -1.83086 | 23985 ft | 376 kts | 329° |
| 2026-05-04 19:15 | 54.12862 | -1.84957 | 23426 ft | 376 kts | 342° |
| 2026-05-04 19:15 | 54.15421 | -1.85783 | 22785 ft | 376 kts | 356° |
| 2026-05-04 19:16 | 54.18026 | -1.85518 | 22172 ft | 376 kts | 9° |
| 2026-05-04 19:16 | 54.20596 | -1.84709 | 21566 ft | 376 kts | 9° |
| 2026-05-04 19:16 | 54.23169 | -1.83892 | 20993 ft | 375 kts | 9° |
| 2026-05-04 19:16 | 54.25699 | -1.83092 | 20443 ft | 375 kts | 9° |
| 2026-05-04 19:17 | 54.28261 | -1.82283 | 19894 ft | 374 kts | 9° |
| 2026-05-04 19:17 | 54.30797 | -1.81484 | 19345 ft | 365 kts | 9° |
| 2026-05-04 19:17 | 54.33253 | -1.80707 | 18859 ft | 352 kts | 9° |
| 2026-05-04 19:17 | 54.35628 | -1.79936 | 18385 ft | 344 kts | 9° |
| 2026-05-04 19:18 | 54.37963 | -1.79162 | 17860 ft | 341 kts | 9° |
| 2026-05-04 19:18 | 54.40269 | -1.78386 | 17322 ft | 332 kts | 9° |
| 2026-05-04 19:18 | 54.42480 | -1.77630 | 16818 ft | 325 kts | 9° |
| 2026-05-04 19:18 | 54.44683 | -1.76869 | 16330 ft | 322 kts | 9° |
| 2026-05-04 19:19 | 54.46871 | -1.76105 | 15847 ft | 319 kts | 9° |
| 2026-05-04 19:19 | 54.49060 | -1.75334 | 15374 ft | 322 kts | 9° |
| 2026-05-04 19:19 | 54.51264 | -1.74553 | 14908 ft | 325 kts | 9° |
| 2026-05-04 19:19 | 54.53487 | -1.73760 | 14446 ft | 327 kts | 9° |
| 2026-05-04 19:20 | 54.55702 | -1.72965 | 13989 ft | 322 kts | 9° |
| 2026-05-04 19:20 | 54.57862 | -1.72178 | 13496 ft | 313 kts | 9° |
| 2026-05-04 19:20 | 54.59956 | -1.71406 | 12990 ft | 305 kts | 9° |
| 2026-05-04 19:20 | 54.62011 | -1.70644 | 12454 ft | 299 kts | 9° |
| 2026-05-04 19:21 | 54.63999 | -1.69901 | 11919 ft | 294 kts | 9° |
| 2026-05-04 19:21 | 54.65975 | -1.69155 | 11390 ft | 289 kts | 9° |
| 2026-05-04 19:21 | 54.67924 | -1.68454 | 10867 ft | 283 kts | 8° |
| 2026-05-04 19:21 | 54.69844 | -1.67772 | 10359 ft | 279 kts | 8° |
| 2026-05-04 19:22 | 54.71727 | -1.67094 | 9856 ft | 274 kts | 8° |
| 2026-05-04 19:22 | 54.73577 | -1.66426 | 9350 ft | 268 kts | 8° |
| 2026-05-04 19:22 | 54.75384 | -1.65774 | 8844 ft | 262 kts | 8° |
| 2026-05-04 19:22 | 54.77154 | -1.65146 | 8352 ft | 257 kts | 8° |
| 2026-05-04 19:23 | 54.78864 | -1.64548 | 7875 ft | 252 kts | 8° |
| 2026-05-04 19:23 | 54.80569 | -1.63961 | 7398 ft | 248 kts | 8° |
| 2026-05-04 19:23 | 54.82266 | -1.63386 | 7005 ft | 249 kts | 8° |
| 2026-05-04 19:23 | 54.83960 | -1.62693 | 6603 ft | 252 kts | 21° |
| 2026-05-04 19:24 | 54.85505 | -1.61262 | 6194 ft | 249 kts | 29° |
| 2026-05-04 19:24 | 54.86958 | -1.59709 | 5783 ft | 242 kts | 30° |
| 2026-05-04 19:24 | 54.88363 | -1.58173 | 5490 ft | 236 kts | 30° |
| 2026-05-04 19:24 | 54.89737 | -1.56659 | 5233 ft | 232 kts | 30° |
| 2026-05-04 19:25 | 54.91090 | -1.55160 | 4969 ft | 229 kts | 30° |
| 2026-05-04 19:25 | 54.92411 | -1.53688 | 4665 ft | 228 kts | 30° |
| 2026-05-04 19:25 | 54.93737 | -1.52200 | 4353 ft | 226 kts | 30° |
| 2026-05-04 19:25 | 54.95057 | -1.50713 | 4043 ft | 226 kts | 30° |
| 2026-05-04 19:26 | 54.96370 | -1.49229 | 3723 ft | 222 kts | 31° |
| 2026-05-04 19:26 | 54.97648 | -1.47777 | 3433 ft | 220 kts | 30° |
| 2026-05-04 19:26 | 54.98927 | -1.46317 | 3119 ft | 217 kts | 31° |
| 2026-05-04 19:26 | 55.00166 | -1.44897 | 2817 ft | 211 kts | 31° |
| 2026-05-04 19:27 | 55.01377 | -1.43510 | 2501 ft | 205 kts | 30° |
| 2026-05-04 19:27 | 55.02534 | -1.42178 | 2401 ft | 198 kts | 31° |
| 2026-05-04 19:27 | 55.03647 | -1.40899 | 2400 ft | 186 kts | 30° |
| 2026-05-04 19:27 | 55.04739 | -1.39895 | 2398 ft | 170 kts | 6° |
| 2026-05-04 19:28 | 55.05870 | -1.40084 | 2424 ft | 162 kts | 339° |
| 2026-05-04 19:28 | 55.06869 | -1.40973 | 2415 ft | 161 kts | 325° |
| 2026-05-04 19:28 | 55.07757 | -1.42149 | 2408 ft | 160 kts | 321° |
| 2026-05-04 19:28 | 55.08616 | -1.43394 | 2407 ft | 160 kts | 315° |
| 2026-05-04 19:29 | 55.09231 | -1.45007 | 2407 ft | 161 kts | 292° |
| 2026-05-04 19:29 | 55.09413 | -1.46869 | 2399 ft | 154 kts | 270° |
| 2026-05-04 19:29 | 55.09161 | -1.48637 | 2417 ft | 164 kts | 249° |
| 2026-05-04 19:29 | 55.08681 | -1.50463 | 2398 ft | 158 kts | 249° |
| 2026-05-04 19:30 | 55.08234 | -1.52155 | 2216 ft | 149 kts | 249° |
| 2026-05-04 19:30 | 55.07815 | -1.53744 | 2034 ft | 141 kts | 250° |
| 2026-05-04 19:30 | 55.07412 | -1.55274 | 1841 ft | 137 kts | 249° |
| 2026-05-04 19:30 | 55.07017 | -1.56775 | 1646 ft | 136 kts | 249° |
| 2026-05-04 19:31 | 55.06615 | -1.58269 | 1419 ft | 136 kts | 248° |
| 2026-05-04 19:31 | 55.06215 | -1.59774 | 1248 ft | 141 kts | 248° |
| 2026-05-04 19:31 | 55.05818 | -1.61318 | 1031 ft | 137 kts | 248° |
| 2026-05-04 19:31 | 55.05421 | -1.62825 | 832 ft | 136 kts | 246° |
| 2026-05-04 19:32 | 55.05041 | -1.64278 | 684 ft | 134 kts | 247° |
| 2026-05-04 19:32 | 55.04650 | -1.65735 | 507 ft | 131 kts | 247° |
| 2026-05-04 19:32 | 55.04277 | -1.67147 | 321 ft | 126 kts | 247° |
| 2026-05-04 19:32 | 55.03932 | -1.68451 | 259 ft | 102 kts | 245° |
| 2026-05-04 19:33 | 55.03708 | -1.69299 | 267 ft | 52 kts | 245° |
| 2026-05-04 19:33 | 55.03613 | -1.69653 | 272 ft | 24 kts | 245° |
| 2026-05-04 19:33 | 55.03581 | -1.69875 | 272 ft | 17 kts | 269° |
| 2026-05-04 19:33 | 55.03589 | -1.70061 | 272 ft | 12 kts | 274° |
| 2026-05-04 19:34 | 55.03594 | -1.70175 | 273 ft | 8 kts | 274° |
| 2026-05-04 19:34 | 55.03598 | -1.70285 | 273 ft | 10 kts | 273° |
| 2026-05-04 19:34 | 55.03600 | -1.70420 | 273 ft | 12 kts | 266° |
| 2026-05-04 19:34 | 55.03596 | -1.70511 | 274 ft | 6 kts | 265° |
| 2026-05-04 19:35 | 55.03591 | -1.70597 | 275 ft | 8 kts | 266° |
| 2026-05-04 19:35 | 55.03608 | -1.70633 | 275 ft | 3 kts | 340° |
| 2026-05-04 19:35 | 55.03630 | -1.70640 | 274 ft | 5 kts | 352° |
| 2026-05-04 19:35 | 55.03656 | -1.70648 | 276 ft | 2 kts | 350° |
| 2026-05-04 19:36 | 55.03658 | -1.70648 | 275 ft | 0 kts | 350° |